Accueil
METAR-TAF:

METAR-TAF

Aéroports :

Aéroport international Chhatrapati-Shivaji

Bombay, Inde

latitude: 19-07N, longitude: 072-51E, altitude: 8 m

Observation

Le bulletin a été fait il y a 47 minutes, à 01:00 UTC
Vent 4 kt de nord/nord-ouest
Température 24°C
Humidité 57%
Pression 1015 hPa
Visibilité: 3000 m
fumée

METAR: VABB 220100Z 34004KT 3000 FU NSC 24/15 Q1015 NOSIG

Heure: 07:17 (01:47 UTC)

Prévision

Le bulletin a été fait il y a 2 heures et 47 minutes, à 23:00 UTC
Prévision valable du 22 à 00 UTC au 22 à 09 UTC
Vent kt de nord
Visibilité: 2500 m
brume sèche
Evoluant progressivement
du 22 à 04 UTC au 22 à 06 UTC
Vent 5 kt de nord/nord-est
Visibilité: 3000 m
fumée
Evoluant progressivement
du 22 à 07 UTC au 22 à 09 UTC
Vent 10 kt de ouest
Visibilité: 4000 m
fumée

TAF: VABB 212300Z 2200/2209 00000KT 2500 HZ NSC BECMG 2204/2206 03005KT 3000 FU BECMG 2207/2209 26010KT 4000 FU

Observations et prévisions météorologiques de plus de 4000 aéroports (messages METAR et TAF).

Les stations disponibles sont représentées par des disques jaunes et rouges sur la carte.

Passer la souris dessus pour voir le nom de la station.

Cliquer dessus pour voir les observations et prévisions météorologiques.

Pour changer de carte: cliquez sur les boutons verts avec une croix noire pour zoomer, sur le bouton vert avec un tiret pour effectuer un zoom arrière, ou sur les flèches vertes pour les cartes adjacentes.


METAR-TAF: